createdAt,value
2024-01-01T00:02:16.009Z,-7.87
2024-01-01T00:04:43.188Z,-7.99
2024-01-01T00:07:10.525Z,-7.98
2024-01-01T00:09:38.704Z,-7.80
2024-01-01T00:12:06.304Z,-7.75
2024-01-01T00:14:33.467Z,-7.72
2024-01-01T00:17:01.677Z,-7.89
2024-01-01T00:19:29.047Z,-7.77
2024-01-01T00:21:56.340Z,-7.66
2024-01-01T00:24:23.518Z,-7.77
2024-01-01T00:26:50.742Z,-7.65
2024-01-01T00:29:24.956Z,-7.58
2024-01-01T00:31:58.163Z,-7.57
2024-01-01T00:34:25.276Z,-7.77
2024-01-01T00:36:52.409Z,-7.79
2024-01-01T00:39:19.471Z,-7.81
2024-01-01T00:41:47.393Z,-7.81
2024-01-01T00:44:14.668Z,-7.74
2024-01-01T00:46:41.978Z,-7.74
2024-01-01T00:49:09.383Z,-7.62
2024-01-01T00:51:37.053Z,-7.57
2024-01-01T00:54:04.192Z,-7.36
2024-01-01T00:56:31.370Z,-7.36
2024-01-01T00:58:58.473Z,-7.39
2024-01-01T01:01:25.682Z,-7.37
2024-01-01T01:03:52.728Z,-7.41
2024-01-01T01:06:24.874Z,-7.39
2024-01-01T01:08:52.918Z,-7.38
2024-01-01T01:11:20.019Z,-7.34
2024-01-01T01:13:47.405Z,-7.31
2024-01-01T01:16:14.676Z,-7.39
2024-01-01T01:18:41.994Z,-7.60
2024-01-01T01:21:10.512Z,-7.57
2024-01-01T01:23:37.696Z,-7.52
2024-01-01T01:26:05.079Z,-7.62
2024-01-01T01:28:32.435Z,-7.53
2024-01-01T01:30:59.629Z,-7.29
2024-01-01T01:33:26.833Z,-7.30
2024-01-01T01:35:54.041Z,-7.36
2024-01-01T01:38:21.056Z,-7.42
2024-01-01T01:40:48.219Z,-7.64
2024-01-01T01:43:23.066Z,-7.77
2024-01-01T01:45:51.909Z,-7.82
2024-01-01T01:48:19.801Z,-7.65
2024-01-01T01:50:47.537Z,-7.67
2024-01-01T01:53:15.269Z,-7.70
2024-01-01T01:55:44.300Z,-7.61
2024-01-01T01:58:11.890Z,-7.75
2024-01-01T02:00:39.726Z,-7.77
2024-01-01T02:03:08.023Z,-7.80
2024-01-01T02:05:35.332Z,-7.83
2024-01-01T02:08:03.060Z,-7.95
2024-01-01T02:10:30.526Z,-7.94
2024-01-01T02:12:57.894Z,-7.84
2024-01-01T02:15:24.945Z,-8.07
2024-01-01T02:17:52.408Z,-8.08
2024-01-01T02:20:20.224Z,-8.02
2024-01-01T02:22:47.554Z,-8.11
2024-01-01T02:25:17.528Z,-8.23
2024-01-01T02:27:46.080Z,-8.23
2024-01-01T02:30:13.451Z,-8.30
2024-01-01T02:32:40.690Z,-8.24
2024-01-01T02:35:10.333Z,-8.03
2024-01-01T02:37:37.975Z,-7.99
2024-01-01T02:40:07.195Z,-7.90
2024-01-01T02:42:34.410Z,-7.92
2024-01-01T02:45:01.657Z,-8.11
2024-01-01T02:47:31.935Z,-8.20
2024-01-01T02:49:59.156Z,-8.22
2024-01-01T02:52:26.251Z,-8.33
2024-01-01T02:54:53.474Z,-8.34
2024-01-01T02:57:20.777Z,-8.42
2024-01-01T02:59:47.932Z,-8.54
2024-01-01T03:02:16.995Z,-8.65
2024-01-01T03:04:44.362Z,-8.69
2024-01-01T03:07:12.040Z,-8.61
2024-01-01T03:09:39.250Z,-8.49
2024-01-01T03:12:07.247Z,-8.65
2024-01-01T03:14:34.620Z,-8.62
2024-01-01T03:17:01.828Z,-8.52
2024-01-01T03:19:28.900Z,-8.54
2024-01-01T03:21:56.493Z,-8.53
2024-01-01T03:24:23.680Z,-8.48
2024-01-01T03:26:50.713Z,-8.55
2024-01-01T03:29:19.219Z,-8.49
2024-01-01T03:31:46.712Z,-8.46
2024-01-01T03:34:14.129Z,-8.54
2024-01-01T03:36:41.255Z,-8.51
2024-01-01T03:39:08.359Z,-8.55
2024-01-01T03:41:35.441Z,-8.49
2024-01-01T03:44:03.510Z,-8.22
2024-01-01T03:46:30.652Z,-8.20
2024-01-01T03:48:57.985Z,-8.41
2024-01-01T03:51:25.240Z,-8.56
2024-01-01T03:53:52.414Z,-8.63
2024-01-01T03:56:19.581Z,-8.46
2024-01-01T03:58:46.689Z,-8.43
2024-01-01T04:01:15.177Z,-8.32
2024-01-01T04:03:42.485Z,-8.28
2024-01-01T04:06:10.131Z,-8.17
2024-01-01T04:08:37.350Z,-8.19
2024-01-01T04:11:04.917Z,-8.13
2024-01-01T04:13:32.265Z,-8.08
2024-01-01T04:15:59.381Z,-8.33
2024-01-01T04:18:26.534Z,-8.50
2024-01-01T04:20:54.455Z,-8.53
2024-01-01T04:23:22.005Z,-8.63
2024-01-01T04:25:49.166Z,-8.67
2024-01-01T04:28:16.356Z,-8.44
2024-01-01T04:30:43.681Z,-8.48
2024-01-01T04:33:10.886Z,-8.38
2024-01-01T04:35:38.363Z,-8.31
2024-01-01T04:38:05.695Z,-8.21
2024-01-01T04:40:33.640Z,-8.15
2024-01-01T04:43:01.189Z,-8.16
2024-01-01T04:45:28.226Z,-8.34
2024-01-01T04:47:55.416Z,-8.33
2024-01-01T04:50:22.797Z,-8.20
2024-01-01T04:52:49.926Z,-8.40
2024-01-01T04:55:20.112Z,-8.54
2024-01-01T04:57:48.073Z,-8.69
2024-01-01T05:00:16.303Z,-8.53
2024-01-01T05:02:43.387Z,-8.67
2024-01-01T05:05:10.851Z,-8.64
2024-01-01T05:07:40.755Z,-8.82
2024-01-01T05:10:08.286Z,-8.71
2024-01-01T05:12:35.364Z,-8.69
2024-01-01T05:15:02.281Z,-8.68
2024-01-01T05:17:32.130Z,-8.78
2024-01-01T05:19:59.202Z,-8.80
2024-01-01T05:22:26.373Z,-8.80
2024-01-01T05:24:53.379Z,-8.65
2024-01-01T05:27:20.548Z,-8.67
2024-01-01T05:29:47.927Z,-8.87
2024-01-01T05:32:14.964Z,-8.79
2024-01-01T05:34:42.879Z,-8.79
2024-01-01T05:37:10.033Z,-8.69
2024-01-01T05:39:37.091Z,-8.65
2024-01-01T05:42:04.636Z,-8.65
2024-01-01T05:44:31.676Z,-8.73
2024-01-01T05:46:58.703Z,-8.92
2024-01-01T05:49:25.929Z,-9.18
2024-01-01T05:51:53.131Z,-9.23
2024-01-01T05:54:20.262Z,-9.03
2024-01-01T05:56:47.523Z,-9.08
2024-01-01T05:59:14.700Z,-9.06
2024-01-01T06:01:41.755Z,-8.97
2024-01-01T06:04:09.075Z,-8.83
2024-01-01T06:06:36.800Z,-8.70
2024-01-01T06:09:04.828Z,-8.83
2024-01-01T06:11:32.702Z,-9.17
2024-01-01T06:14:01.554Z,-9.31
2024-01-01T06:16:30.371Z,-9.43
2024-01-01T06:18:57.919Z,-9.37
2024-01-01T06:21:25.039Z,-9.26
2024-01-01T06:23:52.226Z,-9.14
2024-01-01T06:26:19.560Z,-9.09
2024-01-01T06:28:46.763Z,-9.04
2024-01-01T06:31:13.801Z,-9.10
2024-01-01T06:33:41.317Z,-9.08
2024-01-01T06:36:10.061Z,-9.32
2024-01-01T06:38:37.891Z,-9.51
2024-01-01T06:41:05.621Z,-9.49
2024-01-01T06:43:33.909Z,-9.48
2024-01-01T06:46:01.207Z,-9.47
2024-01-01T06:48:28.581Z,-9.37
2024-01-01T06:50:55.584Z,-9.26
2024-01-01T06:53:22.794Z,-9.39
2024-01-01T06:55:50.163Z,-9.37
2024-01-01T06:58:17.486Z,-9.50
2024-01-01T07:00:44.950Z,-9.49
2024-01-01T07:03:12.194Z,-9.52
2024-01-01T07:05:39.359Z,-9.66
2024-01-01T07:08:07.041Z,-9.72
2024-01-01T07:10:34.300Z,-9.56
2024-01-01T07:13:01.576Z,-9.50
2024-01-01T07:15:28.730Z,-9.60
2024-01-01T07:18:00.610Z,-9.48
2024-01-01T07:20:28.556Z,-9.39
2024-01-01T07:22:55.702Z,-9.57
2024-01-01T07:25:22.813Z,-9.54
2024-01-01T07:27:49.991Z,-9.67
2024-01-01T07:30:17.382Z,-9.67
2024-01-01T07:32:44.434Z,-9.73
2024-01-01T07:35:11.715Z,-9.70
2024-01-01T07:37:39.103Z,-9.73
2024-01-01T07:40:07.882Z,-9.66
2024-01-01T07:42:35.021Z,-9.53
2024-01-01T07:45:02.116Z,-9.41
2024-01-01T07:47:32.459Z,-9.41
2024-01-01T07:49:59.901Z,-9.45
2024-01-01T07:52:27.018Z,-9.58
2024-01-01T07:54:58.958Z,-9.56
2024-01-01T07:57:26.346Z,-9.54
2024-01-01T07:59:56.840Z,-9.38
2024-01-01T08:02:26.718Z,-9.27
2024-01-01T08:04:55.163Z,-9.26
2024-01-01T08:07:23.451Z,-9.29
2024-01-01T08:09:50.572Z,-9.35
2024-01-01T08:12:17.965Z,-9.34
2024-01-01T08:14:45.108Z,-9.19
2024-01-01T08:17:12.595Z,-9.08
2024-01-01T08:19:39.686Z,-9.16
2024-01-01T08:22:06.812Z,-9.07
2024-01-01T08:24:33.854Z,-9.08
2024-01-01T08:27:00.937Z,-9.09
2024-01-01T08:29:27.875Z,-8.89
2024-01-01T08:31:55.919Z,-8.75
2024-01-01T08:34:23.190Z,-8.85
2024-01-01T08:36:50.220Z,-8.86
2024-01-01T08:39:17.313Z,-9.00
2024-01-01T08:41:45.255Z,-8.97
2024-01-01T08:44:12.408Z,-8.99
2024-01-01T08:46:39.513Z,-9.08
2024-01-01T08:49:06.900Z,-9.06
2024-01-01T08:51:34.299Z,-9.20
2024-01-01T08:54:02.635Z,-9.08
2024-01-01T08:56:29.656Z,-8.83
2024-01-01T08:58:56.676Z,-8.85
2024-01-01T09:01:23.707Z,-8.77
2024-01-01T09:03:50.909Z,-8.57
2024-01-01T09:06:18.131Z,-8.73
2024-01-01T09:08:45.237Z,-8.68
2024-01-01T09:11:12.442Z,-8.31
2024-01-01T09:13:39.529Z,-8.01
2024-01-01T09:16:06.795Z,-7.90
2024-01-01T09:18:33.988Z,-7.88
2024-01-01T09:21:01.433Z,-8.09
2024-01-01T09:23:28.984Z,-8.25
2024-01-01T09:25:56.555Z,-8.30
2024-01-01T09:28:23.896Z,-8.18
2024-01-01T09:30:51.078Z,-8.16
2024-01-01T09:33:18.589Z,-8.29
2024-01-01T09:35:46.698Z,-8.29
2024-01-01T09:38:17.147Z,-8.24
2024-01-01T09:40:45.058Z,-8.30
2024-01-01T09:43:19.236Z,-8.44
2024-01-01T09:45:49.902Z,-8.44
2024-01-01T09:48:17.278Z,-8.28
2024-01-01T09:50:44.972Z,-8.21
2024-01-01T09:53:12.511Z,-7.71
2024-01-01T09:55:39.864Z,-7.52
2024-01-01T09:58:07.309Z,-7.48
2024-01-01T10:00:34.458Z,-7.57
2024-01-01T10:03:12.183Z,-7.55
2024-01-01T10:05:40.243Z,-7.56
2024-01-01T10:08:11.975Z,-7.72
2024-01-01T10:10:40.228Z,-7.47
2024-01-01T10:13:11.741Z,-7.35
2024-01-01T10:15:40.866Z,-7.45
2024-01-01T10:18:15.740Z,-7.49
2024-01-01T10:20:44.825Z,-7.35
2024-01-01T10:23:21.558Z,-7.42
2024-01-01T10:25:51.935Z,-7.78
2024-01-01T10:28:21.376Z,-7.77
2024-01-01T10:30:48.755Z,-7.92
2024-01-01T10:33:16.276Z,-7.88
2024-01-01T10:35:43.356Z,-7.97
2024-01-01T10:38:13.521Z,-7.86
2024-01-01T10:40:40.792Z,-7.90
2024-01-01T10:43:08.710Z,-7.91
2024-01-01T10:45:36.420Z,-8.22
2024-01-01T10:48:06.087Z,-8.28
2024-01-01T10:50:36.165Z,-8.44
2024-01-01T10:53:29.974Z,-8.33
2024-01-01T10:56:19.179Z,-8.10
2024-01-01T10:59:16.939Z,-8.02
2024-01-01T11:01:44.766Z,-8.12
2024-01-01T11:04:16.434Z,-8.23
2024-01-01T11:06:46.136Z,-7.94
2024-01-01T11:09:22.948Z,-7.82
2024-01-01T11:11:53.904Z,-7.69
2024-01-01T11:14:43.642Z,-7.73
2024-01-01T11:17:12.599Z,-7.55
2024-01-01T11:19:44.971Z,-7.68
2024-01-01T11:22:21.466Z,-7.84
2024-01-01T11:24:50.314Z,-7.81
2024-01-01T11:27:24.984Z,-7.71
2024-01-01T11:29:52.132Z,-7.61
2024-01-01T11:32:20.363Z,-7.50
2024-01-01T11:35:15.915Z,-7.65
2024-01-01T11:37:45.131Z,-7.76
2024-01-01T11:40:13.224Z,-7.72
2024-01-01T11:42:41.288Z,-7.79
2024-01-01T11:45:17.409Z,-7.89
2024-01-01T11:47:46.261Z,-8.14
2024-01-01T11:50:14.201Z,-8.33
2024-01-01T11:52:42.042Z,-8.69
2024-01-01T11:55:09.465Z,-8.70
2024-01-01T11:57:36.851Z,-8.72
2024-01-01T12:00:04.374Z,-8.78
2024-01-01T12:02:37.300Z,-8.96
2024-01-01T12:05:04.918Z,-9.32
2024-01-01T12:07:36.557Z,-9.53
2024-01-01T12:10:11.617Z,-9.65
2024-01-01T12:12:41.197Z,-9.64
2024-01-01T12:15:10.339Z,-9.54
2024-01-01T12:17:51.590Z,-9.44
2024-01-01T12:20:26.210Z,-9.56
2024-01-01T12:22:56.338Z,-9.78
2024-01-01T12:25:25.557Z,-9.96
2024-01-01T12:28:03.130Z,-10.16
2024-01-01T12:30:31.648Z,-10.09
2024-01-01T12:32:59.409Z,-10.02
2024-01-01T12:35:28.907Z,-9.74
2024-01-01T12:37:56.335Z,-9.54
2024-01-01T12:40:24.686Z,-9.43
2024-01-01T12:42:51.753Z,-9.37
2024-01-01T12:45:19.051Z,-9.25
2024-01-01T12:47:46.309Z,-9.23
2024-01-01T12:50:13.622Z,-9.22
2024-01-01T12:52:40.891Z,-9.21
2024-01-01T12:55:08.579Z,-9.23
2024-01-01T12:57:35.670Z,-9.20
2024-01-01T13:00:03.697Z,-9.31
2024-01-01T13:02:32.709Z,-9.48
2024-01-01T13:05:00.904Z,-9.70
2024-01-01T13:07:30.046Z,-9.81
2024-01-01T13:09:57.125Z,-9.87
2024-01-01T13:12:24.525Z,-9.89
2024-01-01T13:14:51.645Z,-10.01
2024-01-01T13:17:19.019Z,-10.13
2024-01-01T13:19:46.054Z,-10.18
2024-01-01T13:22:15.181Z,-10.10
2024-01-01T13:24:43.903Z,-10.31
2024-01-01T13:27:17.908Z,-10.59
2024-01-01T13:29:46.322Z,-10.74
2024-01-01T13:32:14.860Z,-10.82
2024-01-01T13:34:42.247Z,-10.70
2024-01-01T13:37:10.617Z,-10.38
2024-01-01T13:39:39.098Z,-10.46
2024-01-01T13:42:06.639Z,-10.41
2024-01-01T13:44:33.961Z,-10.27
2024-01-01T13:47:02.437Z,-10.33
2024-01-01T13:49:29.536Z,-10.52
2024-01-01T13:51:58.134Z,-10.68
2024-01-01T13:54:25.423Z,-10.75
2024-01-01T13:56:52.623Z,-10.73
2024-01-01T13:59:21.291Z,-10.57
2024-01-01T14:01:48.578Z,-10.56
2024-01-01T14:04:16.061Z,-10.65
2024-01-01T14:06:43.497Z,-10.79
2024-01-01T14:09:11.413Z,-10.79
2024-01-01T14:11:48.267Z,-10.73
2024-01-01T14:14:15.928Z,-10.68
2024-01-01T14:16:47.571Z,-10.64
2024-01-01T14:19:15.861Z,-10.66
2024-01-01T14:21:43.416Z,-10.65
2024-01-01T14:24:10.725Z,-10.72
2024-01-01T14:26:37.884Z,-10.74
2024-01-01T14:29:05.185Z,-10.85
2024-01-01T14:31:32.407Z,-10.88
2024-01-01T14:33:59.605Z,-10.81
2024-01-01T14:36:27.185Z,-10.78
2024-01-01T14:38:54.496Z,-10.79
2024-01-01T14:41:21.712Z,-10.71
2024-01-01T14:43:50.255Z,-10.74
2024-01-01T14:46:20.073Z,-10.76
2024-01-01T14:48:48.299Z,-10.63
2024-01-01T14:51:16.980Z,-10.62
2024-01-01T14:53:44.243Z,-10.91
2024-01-01T14:56:13.771Z,-11.15
2024-01-01T14:58:42.706Z,-11.24
2024-01-01T15:01:10.306Z,-11.31
2024-01-01T15:03:37.682Z,-11.29
2024-01-01T15:06:05.528Z,-11.14
2024-01-01T15:08:33.549Z,-11.16
2024-01-01T15:11:02.035Z,-11.24
2024-01-01T15:13:29.126Z,-11.09
2024-01-01T15:15:56.252Z,-10.95
2024-01-01T15:18:24.013Z,-10.95
2024-01-01T15:20:51.438Z,-10.93
2024-01-01T15:23:19.979Z,-10.96
2024-01-01T15:25:49.066Z,-10.80
2024-01-01T15:28:17.744Z,-10.68
2024-01-01T15:30:45.065Z,-10.60
2024-01-01T15:33:13.753Z,-10.57
2024-01-01T15:35:41.062Z,-10.55
2024-01-01T15:38:08.134Z,-10.46
2024-01-01T15:40:36.248Z,-10.37
2024-01-01T15:43:04.227Z,-10.26
2024-01-01T15:45:31.548Z,-10.23
2024-01-01T15:47:59.042Z,-10.30
2024-01-01T15:50:26.289Z,-10.37
2024-01-01T15:52:53.631Z,-10.27
2024-01-01T15:55:21.093Z,-10.11
2024-01-01T15:57:48.553Z,-10.03
2024-01-01T16:00:16.671Z,-10.01
2024-01-01T16:02:44.311Z,-10.07
2024-01-01T16:05:15.182Z,-10.10
2024-01-01T16:07:42.381Z,-10.27
2024-01-01T16:10:09.700Z,-10.23
2024-01-01T16:12:36.916Z,-10.18
2024-01-01T16:15:04.780Z,-10.20
2024-01-01T16:17:33.357Z,-10.18
2024-01-01T16:20:03.551Z,-10.22
2024-01-01T16:22:32.247Z,-10.25
2024-01-01T16:24:59.655Z,-10.35
2024-01-01T16:27:27.293Z,-10.35
2024-01-01T16:29:54.751Z,-10.30
2024-01-01T16:32:21.850Z,-10.26
2024-01-01T16:34:49.300Z,-10.22
2024-01-01T16:37:18.438Z,-10.19
2024-01-01T16:39:45.672Z,-10.19
2024-01-01T16:42:13.586Z,-10.12
2024-01-01T16:44:43.446Z,-10.04
2024-01-01T16:47:10.666Z,-10.14
2024-01-01T16:49:38.993Z,-10.16
2024-01-01T16:52:08.684Z,-10.10
2024-01-01T16:54:38.533Z,-10.02
2024-01-01T16:57:05.588Z,-10.00
2024-01-01T16:59:32.941Z,-9.93
2024-01-01T17:02:02.620Z,-9.94
2024-01-01T17:04:31.224Z,-9.89
2024-01-01T17:06:58.315Z,-9.92
2024-01-01T17:09:25.797Z,-10.00
2024-01-01T17:11:53.030Z,-10.17
2024-01-01T17:14:20.784Z,-10.45
2024-01-01T17:16:49.775Z,-10.68
2024-01-01T17:19:17.379Z,-10.78
2024-01-01T17:21:44.786Z,-10.66
2024-01-01T17:24:13.357Z,-10.57
2024-01-01T17:26:41.042Z,-10.47
2024-01-01T17:29:08.289Z,-10.37
2024-01-01T17:31:35.496Z,-10.26
2024-01-01T17:34:02.600Z,-10.17
2024-01-01T17:36:31.110Z,-10.29
2024-01-01T17:38:58.382Z,-10.25
2024-01-01T17:41:25.655Z,-10.20
2024-01-01T17:43:52.896Z,-10.29
2024-01-01T17:46:21.182Z,-10.28
2024-01-01T17:48:49.811Z,-10.38
2024-01-01T17:51:17.189Z,-10.55
2024-01-01T17:53:44.284Z,-10.67
2024-01-01T17:56:12.106Z,-10.63
2024-01-01T17:58:39.768Z,-10.58
2024-01-01T18:01:07.423Z,-10.41
2024-01-01T18:03:35.256Z,-10.35
2024-01-01T18:06:02.723Z,-10.37
2024-01-01T18:08:30.253Z,-10.31
2024-01-01T18:10:57.729Z,-10.23
2024-01-01T18:13:24.846Z,-10.28
2024-01-01T18:15:52.142Z,-10.13
2024-01-01T18:18:21.680Z,-10.13
2024-01-01T18:20:51.211Z,-10.37
2024-01-01T18:23:18.454Z,-10.47
2024-01-01T18:25:46.161Z,-10.55
2024-01-01T18:28:13.488Z,-10.60
2024-01-01T18:30:41.082Z,-10.68
2024-01-01T18:33:11.235Z,-10.69
2024-01-01T18:35:39.386Z,-10.68
2024-01-01T18:38:06.563Z,-10.69
2024-01-01T18:40:34.641Z,-10.76
2024-01-01T18:43:02.606Z,-10.81
2024-01-01T18:45:29.730Z,-10.96
2024-01-01T18:47:58.034Z,-11.05
2024-01-01T18:50:26.658Z,-11.11
2024-01-01T18:52:54.135Z,-11.18
2024-01-01T18:55:21.226Z,-11.09
2024-01-01T18:57:48.541Z,-11.11
2024-01-01T19:00:15.926Z,-11.17
2024-01-01T19:02:43.158Z,-11.31
2024-01-01T19:05:10.686Z,-11.29
2024-01-01T19:07:37.909Z,-11.33
2024-01-01T19:10:05.362Z,-11.41
2024-01-01T19:12:32.993Z,-11.44
2024-01-01T19:15:03.491Z,-11.52
2024-01-01T19:17:32.942Z,-11.60
2024-01-01T19:20:00.441Z,-11.71
2024-01-01T19:22:29.350Z,-11.75
2024-01-01T19:24:58.264Z,-11.89
2024-01-01T19:27:25.678Z,-11.94
2024-01-01T19:29:52.815Z,-11.89
2024-01-01T19:32:20.440Z,-11.87
2024-01-01T19:34:47.888Z,-11.86
2024-01-01T19:37:17.090Z,-11.94
2024-01-01T19:39:44.128Z,-11.96
2024-01-01T19:42:12.696Z,-12.03
2024-01-01T19:44:40.217Z,-12.00
2024-01-01T19:47:07.236Z,-11.92
2024-01-01T19:49:34.459Z,-12.01
2024-01-01T19:52:02.205Z,-12.09
2024-01-01T19:54:29.227Z,-12.04
2024-01-01T19:56:56.443Z,-11.94
2024-01-01T19:59:23.668Z,-11.93
2024-01-01T20:01:50.965Z,-11.98
2024-01-01T20:04:18.020Z,-11.91
2024-01-01T20:06:45.801Z,-11.83
2024-01-01T20:09:14.333Z,-11.80
2024-01-01T20:11:41.599Z,-11.87
2024-01-01T20:14:11.813Z,-11.97
2024-01-01T20:16:39.056Z,-12.09
2024-01-01T20:19:06.467Z,-12.12
2024-01-01T20:21:34.521Z,-12.21
2024-01-01T20:24:04.059Z,-12.17
2024-01-01T20:26:31.769Z,-12.16
2024-01-01T20:28:59.587Z,-12.12
2024-01-01T20:31:27.689Z,-11.99
2024-01-01T20:33:57.421Z,-11.95
2024-01-01T20:36:26.274Z,-11.83
2024-01-01T20:39:01.165Z,-11.79
2024-01-01T20:41:31.174Z,-11.75
2024-01-01T20:43:58.457Z,-11.93
2024-01-01T20:46:25.418Z,-11.91
2024-01-01T20:48:52.576Z,-11.86
2024-01-01T20:51:19.772Z,-11.88
2024-01-01T20:53:46.992Z,-11.83
2024-01-01T20:56:14.524Z,-11.79
2024-01-01T20:58:41.925Z,-11.74
2024-01-01T21:01:09.419Z,-11.65
2024-01-01T21:03:37.564Z,-11.58
2024-01-01T21:06:10.295Z,-11.50
2024-01-01T21:08:39.541Z,-11.48
2024-01-01T21:11:08.291Z,-11.65
2024-01-01T21:13:36.847Z,-11.79
2024-01-01T21:16:04.803Z,-11.74
2024-01-01T21:18:32.209Z,-11.74
2024-01-01T21:20:59.697Z,-11.66
2024-01-01T21:23:27.354Z,-11.70
2024-01-01T21:25:54.644Z,-11.69
2024-01-01T21:28:21.577Z,-11.50
2024-01-01T21:30:49.007Z,-11.41
2024-01-01T21:33:16.514Z,-11.46
2024-01-01T21:35:43.665Z,-11.44
2024-01-01T21:38:10.879Z,-11.42
2024-01-01T21:40:37.833Z,-11.33
2024-01-01T21:43:06.760Z,-11.36
2024-01-01T21:45:34.701Z,-11.40
2024-01-01T21:48:03.842Z,-11.35
2024-01-01T21:50:33.587Z,-11.26
2024-01-01T21:53:02.310Z,-11.29
2024-01-01T21:55:30.287Z,-11.27
2024-01-01T21:57:57.747Z,-11.29
2024-01-01T22:00:24.980Z,-11.26
2024-01-01T22:02:52.351Z,-11.18
2024-01-01T22:05:19.980Z,-11.27
2024-01-01T22:07:50.040Z,-11.34
2024-01-01T22:10:17.531Z,-11.42
2024-01-01T22:12:45.744Z,-11.42
2024-01-01T22:15:17.494Z,-11.34
2024-01-01T22:17:46.530Z,-11.35
2024-01-01T22:20:14.445Z,-11.42
2024-01-01T22:22:41.817Z,-11.44
2024-01-01T22:25:09.548Z,-11.43
2024-01-01T22:27:36.629Z,-11.44
2024-01-01T22:30:04.171Z,-11.42
2024-01-01T22:32:33.699Z,-11.41
2024-01-01T22:35:01.546Z,-11.39
2024-01-01T22:37:31.844Z,-11.41
2024-01-01T22:39:59.059Z,-11.43
2024-01-01T22:42:26.180Z,-11.41
2024-01-01T22:44:53.376Z,-11.42
2024-01-01T22:47:20.531Z,-11.38
2024-01-01T22:49:47.700Z,-11.50
2024-01-01T22:52:14.856Z,-11.54
2024-01-01T22:54:41.984Z,-11.56
2024-01-01T22:57:09.074Z,-11.61
2024-01-01T22:59:36.388Z,-11.83
2024-01-01T23:02:03.720Z,-11.87
2024-01-01T23:04:31.099Z,-12.16
2024-01-01T23:06:58.292Z,-12.27
2024-01-01T23:09:25.785Z,-12.38
2024-01-01T23:11:53.006Z,-12.36
2024-01-01T23:14:20.322Z,-12.29
2024-01-01T23:16:47.771Z,-12.30
2024-01-01T23:19:14.827Z,-12.39
2024-01-01T23:21:44.645Z,-12.50
2024-01-01T23:24:12.160Z,-12.56
2024-01-01T23:26:39.490Z,-12.63
2024-01-01T23:29:06.904Z,-12.77
2024-01-01T23:31:34.117Z,-12.89
2024-01-01T23:34:08.661Z,-12.98
2024-01-01T23:36:43.626Z,-13.00
2024-01-01T23:39:11.485Z,-13.05
2024-01-01T23:41:38.616Z,-12.99
2024-01-01T23:44:05.785Z,-13.00
2024-01-01T23:46:33.382Z,-13.11
2024-01-01T23:49:01.297Z,-13.29
2024-01-01T23:51:28.509Z,-13.39
2024-01-01T23:53:57.225Z,-13.43
2024-01-01T23:56:25.701Z,-13.41
2024-01-01T23:58:52.973Z,-13.46
